createdAt,value
2022-10-23T00:02:25.028Z,100321.00
2022-10-23T00:04:58.772Z,100340.00
2022-10-23T00:07:32.054Z,100320.00
2022-10-23T00:10:06.399Z,100332.00
2022-10-23T00:12:39.956Z,100322.00
2022-10-23T00:15:14.388Z,100291.00
2022-10-23T00:17:51.449Z,100335.00
2022-10-23T00:20:24.803Z,100326.00
2022-10-23T00:22:58.016Z,100335.00
2022-10-23T00:25:33.546Z,100331.00
2022-10-23T00:28:07.362Z,100331.00
2022-10-23T00:30:42.845Z,100331.00
2022-10-23T00:33:19.780Z,100340.00
2022-10-23T00:35:53.783Z,100330.00
2022-10-23T00:38:27.180Z,100298.00
2022-10-23T00:41:00.474Z,100322.00
2022-10-23T00:43:35.261Z,100330.00
2022-10-23T00:46:08.869Z,100311.00
2022-10-23T00:48:43.767Z,100326.00
2022-10-23T00:51:18.734Z,100311.00
2022-10-23T00:54:06.722Z,100334.00
2022-10-23T00:56:54.006Z,100325.00
2022-10-23T00:59:28.559Z,100324.00
2022-10-23T01:02:02.731Z,100324.00
2022-10-23T01:04:39.337Z,100296.00
2022-10-23T01:07:22.209Z,100316.00
2022-10-23T01:10:07.111Z,100321.00
2022-10-23T01:12:51.691Z,100306.00
2022-10-23T01:15:32.993Z,100280.00
2022-10-23T01:18:18.242Z,100300.00
2022-10-23T01:21:02.614Z,100306.00
2022-10-23T01:24:13.456Z,100303.00
2022-10-23T01:27:26.802Z,100298.00
2022-10-23T01:30:07.582Z,100301.00
2022-10-23T01:32:51.257Z,100305.00
2022-10-23T01:35:30.088Z,100291.00
2022-10-23T01:38:13.049Z,100266.00
2022-10-23T01:40:57.680Z,100292.00
2022-10-23T01:43:42.873Z,100288.00
2022-10-23T01:46:19.514Z,100290.00
2022-10-23T01:48:56.570Z,100293.00
2022-10-23T01:51:36.236Z,100277.00
2022-10-23T01:54:15.640Z,100279.00
2022-10-23T01:56:52.485Z,100280.00
2022-10-23T01:59:36.388Z,100270.00
2022-10-23T02:02:13.041Z,100262.00
2022-10-23T02:04:57.354Z,100263.00
2022-10-23T02:07:31.658Z,100250.00
2022-10-23T02:10:07.763Z,100249.00
2022-10-23T02:12:53.134Z,100241.00
2022-10-23T02:15:36.254Z,100232.00
2022-10-23T02:18:28.532Z,100244.00
2022-10-23T02:21:10.923Z,100242.00
2022-10-23T02:23:56.311Z,100227.00
2022-10-23T02:26:37.275Z,100231.00
2022-10-23T02:29:17.304Z,100236.00
2022-10-23T02:31:53.354Z,100218.00
2022-10-23T02:34:26.966Z,100209.00
2022-10-23T02:37:00.563Z,100229.00
2022-10-23T02:39:34.945Z,100224.00
2022-10-23T02:42:15.064Z,100227.00
2022-10-23T02:45:02.288Z,100216.00
2022-10-23T02:47:53.181Z,100221.00
2022-10-23T02:50:35.384Z,100227.00
2022-10-23T02:53:24.712Z,100215.00
2022-10-23T02:56:10.336Z,100208.00
2022-10-23T02:58:54.867Z,100212.00
2022-10-23T03:01:37.413Z,100210.00
2022-10-23T03:04:14.649Z,100207.00
2022-10-23T03:06:50.511Z,100199.00
2022-10-23T03:09:24.343Z,100197.00
2022-10-23T03:11:57.618Z,100200.00
2022-10-23T03:14:30.853Z,100185.00
2022-10-23T03:17:04.314Z,100188.00
2022-10-23T03:19:38.970Z,100182.00
2022-10-23T03:22:12.427Z,100200.00
2022-10-23T03:24:45.825Z,100186.00
2022-10-23T03:27:19.304Z,100155.00
2022-10-23T03:29:52.667Z,100167.00
2022-10-23T03:32:25.960Z,100163.00
2022-10-23T03:35:00.637Z,100166.00
2022-10-23T03:37:33.854Z,100146.00
2022-10-23T03:40:08.991Z,100151.00
2022-10-23T03:42:44.313Z,100147.00
2022-10-23T03:45:17.631Z,100156.00
2022-10-23T03:47:51.909Z,100165.00
2022-10-23T03:50:27.013Z,100141.00
2022-10-23T03:53:00.440Z,100147.00
2022-10-23T03:55:33.876Z,100143.00
2022-10-23T03:58:07.196Z,100143.00
2022-10-23T04:03:21.772Z,100147.00
2022-10-23T04:05:56.355Z,100136.00
2022-10-23T04:08:29.705Z,100084.00
2022-10-23T04:11:07.330Z,100117.00
2022-10-23T04:13:40.677Z,100135.00
2022-10-23T04:16:14.049Z,100141.00
2022-10-23T04:18:47.420Z,100137.00
2022-10-23T04:21:22.262Z,100122.00
2022-10-23T04:23:55.637Z,100132.00
2022-10-23T04:26:29.032Z,100137.00
2022-10-23T04:29:02.276Z,100151.00
2022-10-23T04:31:35.911Z,100140.00
2022-10-23T04:34:09.187Z,100135.00
2022-10-23T04:36:44.168Z,100128.00
2022-10-23T04:39:17.558Z,100134.00
2022-10-23T04:41:51.579Z,100131.00
2022-10-23T04:44:24.977Z,100133.00
2022-10-23T04:46:59.032Z,100126.00
2022-10-23T04:49:32.438Z,100127.00
2022-10-23T04:52:07.290Z,100117.00
2022-10-23T04:54:42.059Z,100107.00
2022-10-23T04:57:15.426Z,100118.00
2022-10-23T04:59:48.730Z,100109.00
2022-10-23T05:02:22.015Z,100109.00
2022-10-23T05:04:55.314Z,100109.00
2022-10-23T05:07:29.987Z,100101.00
2022-10-23T05:10:04.804Z,100085.00
2022-10-23T05:12:38.211Z,100095.00
2022-10-23T05:15:12.676Z,100095.00
2022-10-23T05:17:50.246Z,100077.00
2022-10-23T05:20:30.454Z,100099.00
2022-10-23T05:23:11.854Z,100098.00
2022-10-23T05:25:45.405Z,100077.00
2022-10-23T05:28:18.784Z,100077.00
2022-10-23T05:30:52.256Z,100091.00
2022-10-23T05:33:25.875Z,100090.00
2022-10-23T05:36:01.520Z,100091.00
2022-10-23T05:38:37.531Z,100085.00
2022-10-23T05:41:11.345Z,100092.00
2022-10-23T05:43:46.233Z,100034.00
2022-10-23T18:02:43.184Z,99532.00
2022-10-23T18:05:17.332Z,99531.00
2022-10-23T18:08:08.918Z,99471.00
2022-10-23T18:10:42.578Z,99549.00
2022-10-23T18:13:17.226Z,99528.00
2022-10-23T18:15:51.778Z,99507.00
2022-10-23T18:18:26.666Z,99543.00
2022-10-23T18:21:01.435Z,99529.00
2022-10-23T18:23:36.704Z,99528.00
2022-10-23T18:26:17.316Z,99531.00
2022-10-23T18:28:55.820Z,99527.00
2022-10-23T18:31:30.646Z,99489.00
2022-10-23T18:34:08.974Z,99501.00
2022-10-23T18:36:42.907Z,99500.00
2022-10-23T18:39:22.233Z,99499.00
2022-10-23T18:41:58.755Z,99471.00
2022-10-23T18:44:32.124Z,99464.00
2022-10-23T18:47:05.901Z,99421.00
2022-10-23T18:49:41.447Z,99443.00
2022-10-23T18:52:15.400Z,99493.00
2022-10-23T18:54:48.891Z,99470.00
2022-10-23T18:57:22.943Z,99477.00
2022-10-23T19:00:01.481Z,99496.00
2022-10-23T19:02:35.731Z,99445.00
2022-10-23T19:05:11.762Z,99479.00
2022-10-23T19:07:47.792Z,99484.00
2022-10-23T19:10:23.995Z,99472.00
2022-10-23T19:12:58.468Z,99472.00
2022-10-23T19:15:39.398Z,99447.00
2022-10-23T19:18:13.376Z,99479.00
2022-10-23T19:20:48.480Z,99471.00
2022-10-23T19:23:22.491Z,99463.00
2022-10-23T19:25:56.983Z,99467.00
2022-10-23T19:28:33.030Z,99453.00
2022-10-23T19:31:11.324Z,99456.00
2022-10-23T19:33:44.893Z,99409.00
2022-10-23T19:36:23.535Z,99428.00
2022-10-23T19:38:57.066Z,99449.00
2022-10-23T19:41:31.356Z,99454.00
2022-10-23T19:44:09.234Z,99452.00
2022-10-23T19:46:42.882Z,99451.00
2022-10-23T19:49:16.954Z,99447.00
2022-10-23T19:51:52.443Z,99459.00
2022-10-23T19:54:37.616Z,99454.00
2022-10-23T19:57:11.741Z,99458.00
2022-10-23T19:59:50.174Z,99435.00
2022-10-23T20:02:23.906Z,99454.00
2022-10-23T20:04:58.139Z,99458.00
2022-10-23T20:07:34.615Z,99460.00
2022-10-23T20:10:10.618Z,99422.00
2022-10-23T20:12:56.455Z,99390.00
2022-10-23T20:15:41.588Z,99449.00
2022-10-23T20:18:14.981Z,99421.00
2022-10-23T20:20:49.515Z,99456.00
2022-10-23T20:23:24.570Z,99474.00
2022-10-23T20:26:09.000Z,99455.00
2022-10-23T20:28:43.633Z,99473.00
2022-10-23T20:31:19.356Z,99470.00
2022-10-23T20:33:53.870Z,99477.00
2022-10-23T20:36:30.932Z,99491.00
2022-10-23T20:39:10.370Z,99449.00
2022-10-23T20:41:45.176Z,99513.00
2022-10-23T20:44:20.432Z,99533.00
2022-10-23T20:46:55.408Z,99503.00
2022-10-23T20:49:29.011Z,99523.00
2022-10-23T20:52:03.332Z,99555.00
2022-10-23T20:54:41.657Z,99573.00
2022-10-23T20:57:19.220Z,99605.00
2022-10-23T20:59:55.153Z,99605.00
2022-10-23T21:02:28.693Z,99626.00
2022-10-23T21:05:02.111Z,99617.00
2022-10-23T21:07:42.555Z,99600.00
2022-10-23T21:10:17.964Z,99616.00
2022-10-23T21:12:52.305Z,99576.00
2022-10-23T21:15:26.214Z,99545.00
2022-10-23T21:18:07.874Z,99564.00
2022-10-23T21:20:55.289Z,99557.00
2022-10-23T21:23:30.606Z,99547.00
2022-10-23T21:26:10.335Z,99528.00
2022-10-23T21:28:55.637Z,99541.00
2022-10-23T21:31:40.413Z,99536.00
2022-10-23T21:34:13.948Z,99573.00
2022-10-23T21:37:12.066Z,99535.00
2022-10-23T21:39:43.092Z,99545.00
2022-10-23T21:42:18.169Z,99551.00
2022-10-23T21:44:51.733Z,99566.00
2022-10-23T21:47:25.381Z,99553.00
2022-10-23T21:50:03.518Z,99562.00
2022-10-23T21:52:36.967Z,99516.00
2022-10-23T21:55:11.582Z,99556.00
2022-10-23T21:57:46.744Z,99561.00
2022-10-23T22:00:23.119Z,99542.00
2022-10-23T22:02:56.809Z,99550.00
2022-10-23T22:05:30.645Z,99570.00
2022-10-23T22:08:04.836Z,99563.00
2022-10-23T22:10:38.247Z,99566.00
2022-10-23T22:13:13.335Z,99564.00
2022-10-23T22:15:46.702Z,99544.00
2022-10-23T22:18:20.007Z,99580.00
2022-10-23T22:21:01.270Z,99565.00
2022-10-23T22:23:37.002Z,99553.00
2022-10-23T22:26:21.861Z,99555.00
2022-10-23T22:28:59.529Z,99563.00
2022-10-23T22:31:36.801Z,99534.00
2022-10-23T22:34:26.689Z,99545.00
2022-10-23T22:37:07.264Z,99524.00
2022-10-23T22:39:42.552Z,99547.00
2022-10-23T22:42:18.257Z,99551.00
2022-10-23T22:44:52.913Z,99544.00
2022-10-23T22:47:26.328Z,99534.00
2022-10-23T22:49:59.693Z,99553.00
2022-10-23T22:52:32.993Z,99556.00
2022-10-23T22:55:08.701Z,99543.00
2022-10-23T22:57:42.683Z,99550.00
2022-10-23T23:00:19.880Z,99527.00
2022-10-23T23:02:53.333Z,99544.00
2022-10-23T23:05:27.934Z,99537.00
2022-10-23T23:08:01.455Z,99553.00
2022-10-23T23:10:34.682Z,99537.00
2022-10-23T23:13:08.702Z,99541.00
2022-10-23T23:15:43.624Z,99551.00
2022-10-23T23:18:17.016Z,99551.00
2022-10-23T23:20:51.392Z,99543.00
2022-10-23T23:23:24.739Z,99536.00
2022-10-23T23:25:58.536Z,99520.00
2022-10-23T23:28:31.830Z,99524.00
2022-10-23T23:31:12.538Z,99531.00
2022-10-23T23:33:46.253Z,99523.00
2022-10-23T23:36:23.749Z,99530.00
2022-10-23T23:38:58.895Z,99535.00
2022-10-23T23:41:32.330Z,99523.00
2022-10-23T23:44:06.703Z,99527.00
2022-10-23T23:46:41.909Z,99515.00
2022-10-23T23:49:15.864Z,99535.00
2022-10-23T23:51:49.674Z,99527.00
2022-10-23T23:54:25.738Z,99520.00
2022-10-23T23:57:01.646Z,99520.00
2022-10-23T23:59:38.986Z,99488.00
